createdAt,value
2023-04-09T00:01:22.921Z,7.95
2023-04-09T00:04:26.166Z,8.70
2023-04-09T00:07:29.332Z,9.60
2023-04-09T00:10:32.502Z,8.80
2023-04-09T00:13:39.679Z,8.25
2023-04-09T00:16:43.293Z,9.70
2023-04-09T00:19:46.515Z,9.32
2023-04-09T00:22:50.481Z,9.82
2023-04-09T00:25:53.378Z,9.18
2023-04-09T00:28:56.587Z,9.38
2023-04-09T00:31:59.507Z,9.98
2023-04-09T00:35:02.692Z,10.40
2023-04-09T00:38:06.315Z,11.30
2023-04-09T00:41:09.573Z,11.35
2023-04-09T00:44:13.098Z,10.50
2023-04-09T00:47:16.401Z,10.95
2023-04-09T00:50:19.624Z,11.68
2023-04-09T00:53:23.028Z,11.65
2023-04-09T00:56:27.351Z,11.38
2023-04-09T00:59:30.633Z,10.27
2023-04-09T01:02:34.144Z,10.23
2023-04-09T01:05:44.211Z,10.70
2023-04-09T01:09:02.280Z,10.40
2023-04-09T01:12:32.795Z,10.60
2023-04-09T01:15:40.086Z,9.82
2023-04-09T01:18:51.636Z,8.95
2023-04-09T01:21:56.648Z,8.82
2023-04-09T01:28:21.913Z,7.85
2023-04-09T01:31:29.040Z,8.60
2023-04-09T01:34:32.805Z,8.38
2023-04-09T01:37:36.367Z,8.48
2023-04-09T01:40:39.428Z,8.07
2023-04-09T01:43:43.486Z,9.35
2023-04-09T01:46:50.473Z,8.18
2023-04-09T01:49:54.396Z,8.32
2023-04-09T01:52:57.349Z,8.55
2023-04-09T01:56:01.533Z,9.88
2023-04-09T01:59:04.777Z,9.95
2023-04-09T02:02:23.483Z,12.00
2023-04-09T02:05:29.597Z,12.02
2023-04-09T02:08:33.771Z,10.23
2023-04-09T02:11:42.150Z,10.93
2023-04-09T02:14:51.636Z,9.73
2023-04-09T02:17:55.903Z,9.98
2023-04-09T02:20:59.802Z,9.65
2023-04-09T02:24:03.115Z,12.98
2023-04-09T02:27:06.399Z,11.77
2023-04-09T02:30:09.915Z,13.82
2023-04-09T02:33:12.912Z,14.25
2023-04-09T02:36:16.732Z,14.32
2023-04-09T02:39:19.654Z,13.07
2023-04-09T02:42:23.016Z,11.00
2023-04-09T02:45:26.100Z,11.50
2023-04-09T02:48:30.165Z,10.35
2023-04-09T02:51:36.062Z,9.75
2023-04-09T02:54:40.128Z,9.48
2023-04-09T02:57:43.205Z,8.85
2023-04-09T03:00:46.596Z,8.68
2023-04-09T03:03:50.284Z,8.73
2023-04-09T03:06:54.244Z,9.50
2023-04-09T03:09:57.288Z,8.52
2023-04-09T03:13:00.573Z,10.30
2023-04-09T03:16:03.651Z,9.40
2023-04-09T03:19:06.890Z,9.57
2023-04-09T03:22:12.104Z,7.97
2023-04-09T03:25:15.569Z,9.23
2023-04-09T03:28:18.618Z,9.65
2023-04-09T03:31:22.178Z,10.50
2023-04-09T03:34:25.088Z,10.23
2023-04-09T03:37:29.305Z,10.43
2023-04-09T03:40:33.700Z,10.80
2023-04-09T03:43:36.951Z,11.12
2023-04-09T03:46:40.466Z,10.02
2023-04-09T03:49:44.464Z,10.30
2023-04-09T03:52:48.221Z,10.48
2023-04-09T03:55:51.234Z,10.52
2023-04-09T03:58:55.031Z,11.55
2023-04-09T04:01:59.468Z,11.33
2023-04-09T04:05:03.925Z,11.35
2023-04-09T04:08:07.452Z,12.43
2023-04-09T04:11:10.773Z,11.50
2023-04-09T04:14:14.407Z,11.63
2023-04-09T04:17:18.497Z,13.13
2023-04-09T04:20:22.068Z,11.60
2023-04-09T04:23:26.415Z,11.93
2023-04-09T04:26:29.540Z,11.25
2023-04-09T04:29:33.553Z,11.88
2023-04-09T04:32:36.812Z,11.98
2023-04-09T04:35:41.233Z,11.90
2023-04-09T04:38:44.600Z,11.65
2023-04-09T04:41:49.532Z,12.52
2023-04-09T04:44:53.478Z,11.43
2023-04-09T04:48:01.121Z,11.77
2023-04-09T04:51:04.128Z,13.23
2023-04-09T04:54:08.074Z,12.63
2023-04-09T04:57:11.167Z,11.98
2023-04-09T05:00:15.019Z,12.65
2023-04-09T05:03:18.172Z,11.38
2023-04-09T05:06:22.026Z,12.48
2023-04-09T05:09:25.427Z,13.20
2023-04-09T05:12:32.235Z,14.05
2023-04-09T05:15:39.509Z,13.15
2023-04-09T05:18:43.071Z,14.25
2023-04-09T05:21:47.213Z,13.32
2023-04-09T05:24:54.492Z,13.32
2023-04-09T05:27:58.114Z,12.32
2023-04-09T05:31:02.035Z,12.15
2023-04-09T05:37:10.916Z,13.27
2023-04-09T05:40:15.905Z,14.82
2023-04-09T05:43:19.468Z,14.57
2023-04-09T05:46:27.063Z,15.00
2023-04-09T05:49:30.974Z,14.68
2023-04-09T05:52:34.661Z,14.07
2023-04-09T05:55:38.055Z,14.25
2023-04-09T05:58:41.166Z,12.48
2023-04-09T06:01:44.564Z,15.48
2023-04-09T06:04:47.879Z,15.32
2023-04-09T06:07:51.131Z,16.67
2023-04-09T06:10:54.260Z,16.75
2023-04-09T06:13:57.345Z,17.27
2023-04-09T06:17:00.693Z,17.80
2023-04-09T06:20:03.892Z,17.12
2023-04-09T06:23:07.164Z,18.83
2023-04-09T06:26:10.111Z,19.20
2023-04-09T06:29:13.340Z,18.65
2023-04-09T06:32:16.891Z,17.83
2023-04-09T06:35:20.051Z,18.83
2023-04-09T06:38:22.906Z,18.98
2023-04-09T06:41:26.779Z,18.40
2023-04-09T06:44:30.360Z,17.83
2023-04-09T06:47:33.351Z,18.58
2023-04-09T06:50:35.985Z,18.52
2023-04-09T06:53:39.483Z,16.42
2023-04-09T06:56:42.211Z,16.23
2023-04-09T06:59:45.643Z,15.32
2023-04-09T07:02:49.136Z,14.38
2023-04-09T07:05:52.452Z,14.87
2023-04-09T07:08:55.902Z,16.10
2023-04-09T07:11:59.260Z,16.20
2023-04-09T07:15:03.874Z,14.57
2023-04-09T07:18:07.348Z,14.07
2023-04-09T07:21:10.476Z,13.35
2023-04-09T07:24:13.595Z,13.00
2023-04-09T07:27:16.520Z,13.68
2023-04-09T07:30:19.926Z,12.65
2023-04-09T07:33:22.804Z,13.70
2023-04-09T07:36:26.739Z,13.45
2023-04-09T07:39:29.636Z,13.45
2023-04-09T07:42:33.293Z,12.02
2023-04-09T07:45:36.200Z,12.48
2023-04-09T07:48:40.069Z,12.95
2023-04-09T07:51:43.666Z,11.50
2023-04-09T07:54:47.060Z,9.75
2023-04-09T07:57:50.332Z,10.32
2023-04-09T08:00:53.530Z,10.05
2023-04-09T08:03:57.434Z,9.48
2023-04-09T08:07:00.605Z,9.70
2023-04-09T08:10:04.400Z,9.32
2023-04-09T08:13:08.048Z,8.65
2023-04-09T08:16:12.347Z,9.18
2023-04-09T08:19:17.211Z,7.30
2023-04-09T08:22:20.568Z,6.82
2023-04-09T08:25:23.669Z,6.70
2023-04-09T08:28:26.921Z,6.93
2023-04-09T08:31:29.946Z,7.37
2023-04-09T08:34:33.575Z,6.53
2023-04-09T08:37:36.363Z,6.47
2023-04-09T08:40:40.506Z,6.53
2023-04-09T08:43:56.831Z,6.22
2023-04-09T08:47:01.850Z,6.12
2023-04-09T08:50:05.051Z,5.72
2023-04-09T08:53:08.857Z,5.50
2023-04-09T08:56:14.030Z,4.60
2023-04-09T08:59:21.347Z,5.68
2023-04-09T09:02:24.464Z,5.40
2023-04-09T09:05:41.201Z,5.18
2023-04-09T09:08:44.228Z,5.43
2023-04-09T09:11:50.328Z,6.20
2023-04-09T09:14:53.293Z,5.12
2023-04-09T09:17:58.798Z,5.20
2023-04-09T09:24:18.468Z,5.68
2023-04-09T09:27:37.318Z,5.85
2023-04-09T09:30:41.853Z,5.90
2023-04-09T09:33:45.030Z,5.80
2023-04-09T09:36:48.750Z,5.50
2023-04-09T09:39:51.428Z,5.93
2023-04-09T09:42:56.066Z,5.25
2023-04-09T09:45:59.069Z,5.60
2023-04-09T09:49:02.262Z,5.18
2023-04-09T09:52:09.818Z,5.32
2023-04-09T09:55:16.811Z,5.07
2023-04-09T09:58:41.481Z,4.55
2023-04-09T10:01:46.754Z,4.17
2023-04-09T10:04:52.971Z,5.32
2023-04-09T10:07:58.097Z,5.05
2023-04-09T10:11:01.946Z,4.57
2023-04-09T10:14:08.037Z,4.50
2023-04-09T10:17:11.912Z,4.07
2023-04-09T10:20:24.695Z,3.80
2023-04-09T10:23:32.945Z,4.10
2023-04-09T10:26:37.549Z,3.78
2023-04-09T10:29:48.584Z,5.05
2023-04-09T10:32:53.374Z,4.43
2023-04-09T10:36:02.320Z,4.57
2023-04-09T10:39:15.296Z,4.60
2023-04-09T10:42:43.345Z,4.47
2023-04-09T10:45:53.654Z,4.95
2023-04-09T10:49:18.312Z,4.57
2023-04-09T10:52:30.330Z,4.32
2023-04-09T10:55:41.670Z,4.55
2023-04-09T10:58:44.623Z,4.47
2023-04-09T11:01:54.806Z,4.70
2023-04-09T11:05:20.971Z,4.87
2023-04-09T11:08:24.180Z,4.87
2023-04-09T11:11:28.612Z,4.60
2023-04-09T11:14:33.994Z,4.35
2023-04-09T11:17:37.152Z,4.57
2023-04-09T11:20:41.397Z,4.72
2023-04-09T11:23:52.288Z,4.57
2023-04-09T11:26:56.985Z,4.43
2023-04-09T11:29:59.903Z,4.53
2023-04-09T11:33:04.175Z,4.75
2023-04-09T11:36:09.114Z,4.40
2023-04-09T11:39:12.438Z,4.10
2023-04-09T11:42:16.149Z,4.43
2023-04-09T11:45:21.890Z,5.28
2023-04-09T11:48:25.071Z,4.57
2023-04-09T11:51:28.789Z,5.40
2023-04-09T11:54:35.234Z,4.75
2023-04-09T11:57:43.963Z,4.60
2023-04-09T12:00:46.942Z,4.03
2023-04-09T12:03:56.682Z,4.65
2023-04-09T12:06:59.842Z,4.62
2023-04-09T12:10:10.582Z,4.25
2023-04-09T12:13:13.961Z,4.90
2023-04-09T12:16:21.175Z,4.72
2023-04-09T12:19:25.957Z,5.10
2023-04-09T12:25:32.693Z,4.82
2023-04-09T12:28:35.965Z,4.70
2023-04-09T12:31:38.961Z,4.87
2023-04-09T12:34:42.131Z,4.68
2023-04-09T12:37:44.959Z,5.40
2023-04-09T12:40:48.126Z,5.03
2023-04-09T12:43:51.466Z,4.85
2023-04-09T12:46:55.445Z,4.68
2023-04-09T12:49:58.137Z,4.53
2023-04-09T12:53:03.714Z,4.80
2023-04-09T12:56:14.158Z,4.68
2023-04-09T12:59:19.365Z,4.20
2023-04-09T13:02:22.460Z,4.15
2023-04-09T13:05:26.079Z,4.70
2023-04-09T13:08:29.023Z,4.50
2023-04-09T13:11:33.066Z,4.60
2023-04-09T13:14:36.626Z,4.82
2023-04-09T13:17:39.857Z,5.67
2023-04-09T13:20:42.819Z,5.72
2023-04-09T13:23:45.961Z,4.80
2023-04-09T13:26:49.082Z,5.22
2023-04-09T13:29:52.365Z,4.70
2023-04-09T13:32:55.544Z,4.70
2023-04-09T13:35:58.726Z,4.93
2023-04-09T13:39:05.631Z,4.78
2023-04-09T13:42:13.557Z,5.05
2023-04-09T13:45:18.042Z,4.90
2023-04-09T13:48:21.921Z,4.53
2023-04-09T13:51:26.464Z,4.85
2023-04-09T13:57:32.300Z,4.70
2023-04-09T14:00:36.677Z,4.45
2023-04-09T14:03:41.740Z,4.40
2023-04-09T14:06:44.768Z,4.07
2023-04-09T14:09:50.871Z,4.72
2023-04-09T14:12:54.387Z,4.60
2023-04-09T14:16:00.321Z,4.07
2023-04-09T14:19:03.482Z,4.85
2023-04-09T14:22:08.975Z,4.22
2023-04-09T14:25:12.135Z,4.07
2023-04-09T14:28:15.313Z,3.90
2023-04-09T14:31:21.556Z,4.18
2023-04-09T14:34:24.915Z,4.45
2023-04-09T14:37:27.991Z,5.07
2023-04-09T14:40:32.160Z,4.62
2023-04-09T14:43:35.055Z,4.35
2023-04-09T14:46:38.435Z,3.95
2023-04-09T14:49:41.407Z,5.20
2023-04-09T14:52:48.401Z,4.28
2023-04-09T14:55:51.440Z,4.15
2023-04-09T14:58:54.820Z,3.97
2023-04-09T15:01:58.300Z,4.65
2023-04-09T15:05:03.856Z,4.55
2023-04-09T15:08:07.342Z,4.40
2023-04-09T15:11:18.135Z,4.93
2023-04-09T15:14:21.407Z,4.70
2023-04-09T15:17:26.298Z,4.62
2023-04-09T15:20:29.167Z,5.30
2023-04-09T15:23:35.600Z,4.72
2023-04-09T15:26:38.672Z,5.50
2023-04-09T15:29:41.920Z,5.35
2023-04-09T15:32:48.281Z,4.93
2023-04-09T15:35:51.561Z,5.12
2023-04-09T15:38:54.798Z,5.32
2023-04-09T15:41:58.445Z,4.93
2023-04-09T15:45:01.341Z,5.37
2023-04-09T15:48:05.315Z,5.60
2023-04-09T15:51:09.325Z,6.05
2023-04-09T15:54:12.548Z,7.00
2023-04-09T15:57:15.737Z,7.00
2023-04-09T16:00:18.996Z,6.70
2023-04-09T16:03:22.314Z,6.75
2023-04-09T16:06:25.622Z,7.45
2023-04-09T16:09:28.935Z,7.90
2023-04-09T16:12:32.196Z,7.12
2023-04-09T16:15:36.130Z,7.18
2023-04-09T16:18:39.083Z,7.07
2023-04-09T16:21:44.784Z,6.65
2023-04-09T16:24:47.634Z,6.93
2023-04-09T16:27:55.002Z,7.12
2023-04-09T16:30:58.741Z,7.32
2023-04-09T16:34:03.696Z,6.35
2023-04-09T16:37:07.938Z,6.62
2023-04-09T16:40:11.357Z,6.55
2023-04-09T16:43:14.225Z,7.22
2023-04-09T16:46:18.229Z,7.22
2023-04-09T16:49:21.146Z,7.00
2023-04-09T16:52:24.553Z,6.43
2023-04-09T16:55:27.405Z,7.32
2023-04-09T16:58:30.771Z,7.35
2023-04-09T17:01:35.378Z,7.68
2023-04-09T17:04:38.665Z,8.35
2023-04-09T17:07:43.318Z,8.35
2023-04-09T17:10:46.535Z,8.32
2023-04-09T17:13:49.472Z,8.98
2023-04-09T17:16:53.929Z,9.30
2023-04-09T17:19:58.533Z,8.13
2023-04-09T17:23:01.904Z,8.73
2023-04-09T17:26:05.016Z,9.18
2023-04-09T17:29:08.213Z,9.45
2023-04-09T17:32:11.183Z,9.35
2023-04-09T17:35:14.356Z,10.23
2023-04-09T17:38:21.425Z,9.15
2023-04-09T17:41:25.084Z,9.57
2023-04-09T17:44:28.204Z,8.65
2023-04-09T17:47:31.462Z,9.43
2023-04-09T17:50:38.593Z,9.57
2023-04-09T17:53:41.832Z,9.32
2023-04-09T17:56:46.158Z,10.98
2023-04-09T17:59:49.439Z,12.02
2023-04-09T18:02:54.138Z,11.88
2023-04-09T18:06:00.773Z,11.82
2023-04-09T18:09:04.300Z,11.05
2023-04-09T18:12:07.543Z,12.07
2023-04-09T18:15:11.116Z,11.65
2023-04-09T18:18:14.403Z,11.25
2023-04-09T18:21:18.250Z,11.43
2023-04-09T18:24:21.556Z,10.02
2023-04-09T18:27:24.519Z,10.80
2023-04-09T18:30:27.723Z,9.40
2023-04-09T18:33:31.119Z,9.95
2023-04-09T18:36:34.360Z,9.40
2023-04-09T18:39:37.802Z,9.93
2023-04-09T18:42:40.997Z,9.95
2023-04-09T18:45:45.440Z,9.18
2023-04-09T18:48:50.671Z,9.45
2023-04-09T18:51:53.607Z,9.43
2023-04-09T18:54:58.263Z,9.80
2023-04-09T18:58:02.262Z,10.10
2023-04-09T19:01:13.231Z,10.82
2023-04-09T19:04:16.484Z,10.82
2023-04-09T19:07:22.592Z,11.20
2023-04-09T19:10:27.342Z,10.13
2023-04-09T19:13:32.707Z,11.65
2023-04-09T19:16:37.179Z,12.27
2023-04-09T19:19:40.493Z,11.60
2023-04-09T19:22:48.461Z,9.45
2023-04-09T19:25:53.614Z,9.65
2023-04-09T19:28:56.922Z,10.02
2023-04-09T19:32:00.629Z,9.60
2023-04-09T19:35:03.898Z,11.12
2023-04-09T19:38:08.063Z,12.45
2023-04-09T19:41:11.112Z,12.52
2023-04-09T19:44:14.257Z,12.82
2023-04-09T19:47:17.168Z,12.52
2023-04-09T19:50:20.579Z,11.85
2023-04-09T19:53:23.957Z,10.95
2023-04-09T19:56:27.235Z,12.18
2023-04-09T19:59:31.501Z,12.60
2023-04-09T20:02:35.422Z,12.77
2023-04-09T20:05:40.389Z,12.35
2023-04-09T20:08:43.411Z,12.05
2023-04-09T20:11:47.825Z,11.83
2023-04-09T20:14:51.129Z,12.75
2023-04-09T20:17:54.370Z,11.90
2023-04-09T20:20:57.346Z,11.18
2023-04-09T20:24:00.766Z,12.15
2023-04-09T20:27:04.065Z,11.40
2023-04-09T20:30:08.372Z,12.10
2023-04-09T20:33:11.791Z,12.60
2023-04-09T20:36:19.521Z,13.50
2023-04-09T20:39:25.153Z,13.77
2023-04-09T20:42:28.473Z,13.23
2023-04-09T20:45:31.479Z,11.10
2023-04-09T20:48:34.970Z,12.13
2023-04-09T20:51:38.057Z,11.43
2023-04-09T20:54:43.076Z,11.68
2023-04-09T20:57:46.128Z,11.23
2023-04-09T21:00:49.414Z,12.68
2023-04-09T21:03:53.661Z,11.77
2023-04-09T21:06:58.322Z,11.85
2023-04-09T21:10:01.920Z,12.05
2023-04-09T21:13:05.129Z,11.98
2023-04-09T21:16:09.411Z,10.77
2023-04-09T21:19:12.573Z,11.10
2023-04-09T21:22:15.735Z,11.45
2023-04-09T21:25:18.947Z,11.65
2023-04-09T21:28:21.802Z,11.02
2023-04-09T21:31:25.134Z,10.98
2023-04-09T21:34:28.043Z,11.12
2023-04-09T21:37:33.139Z,11.20
2023-04-09T21:40:37.339Z,11.45
2023-04-09T21:43:40.659Z,10.87
2023-04-09T21:46:44.933Z,11.32
2023-04-09T21:49:50.212Z,10.80
2023-04-09T21:52:53.214Z,11.10
2023-04-09T21:55:57.486Z,11.05
2023-04-09T21:59:01.397Z,10.52
2023-04-09T22:02:04.971Z,10.98
2023-04-09T22:05:08.801Z,10.63
2023-04-09T22:08:13.172Z,10.60
2023-04-09T22:11:16.690Z,10.80
2023-04-09T22:14:20.678Z,11.20
2023-04-09T22:17:23.938Z,11.50
2023-04-09T22:20:27.003Z,11.07
2023-04-09T22:23:30.189Z,11.70
2023-04-09T22:26:33.602Z,11.40
2023-04-09T22:29:37.228Z,11.68
2023-04-09T22:32:40.182Z,11.60
2023-04-09T22:35:44.053Z,11.70
2023-04-09T22:38:46.923Z,13.15
2023-04-09T22:41:51.088Z,12.25
2023-04-09T22:44:54.032Z,11.80
2023-04-09T22:47:57.765Z,12.45
2023-04-09T22:51:00.650Z,11.75
2023-04-09T22:54:04.003Z,11.23
2023-04-09T22:57:06.895Z,10.70
2023-04-09T23:00:10.619Z,11.25
2023-04-09T23:03:13.624Z,12.05
2023-04-09T23:06:19.738Z,11.30
2023-04-09T23:09:22.834Z,11.75
2023-04-09T23:12:26.501Z,10.50
2023-04-09T23:15:29.373Z,11.20
2023-04-09T23:18:33.143Z,11.10
2023-04-09T23:21:37.345Z,11.60
2023-04-09T23:24:40.538Z,12.57
2023-04-09T23:27:44.119Z,11.05
2023-04-09T23:30:47.277Z,10.80
2023-04-09T23:33:50.247Z,11.20
2023-04-09T23:36:53.468Z,10.30
2023-04-09T23:39:56.666Z,10.70
2023-04-09T23:42:59.920Z,11.02
2023-04-09T23:46:02.832Z,11.75
2023-04-09T23:49:06.018Z,11.70
2023-04-09T23:52:08.965Z,10.90
2023-04-09T23:55:12.441Z,11.50
2023-04-09T23:58:15.363Z,10.57
